| Time | Avg. Air Temp | Dew Point | Avg. Rel Humidity | Avg. 2 Min Wind Speed | Max Gust Velocity | MGV Time | MGV Direction | Avg. Spot Wind Velocity |
|---|---|---|---|---|---|---|---|---|
| 2026-09-01 14:40:00 | 13° C | 4° C | 53% | 9 km/h | 17 km/h | 14:37:00 | S | 8 km/h |
| 13:40:00 | 14° C | 4° C | 57% | 9 km/h | 13 km/h | 13:37:00 | S | 8 km/h |
| 12:40:00 | 12° C | 5° C | 64% | 11 km/h | 18 km/h | 12:39:00 | S | 6 km/h |
| 11:40:00 | 11° C | 5° C | 68% | 8 km/h | 12 km/h | 11:37:00 | S | 7 km/h |
| 10:40:00 | 11° C | 5° C | 66% | 5 km/h | 18 km/h | 10:37:00 | E | 7 km/h |
| 09:40:00 | 9° C | 6° C | 72% | 10 km/h | 19 km/h | 09:38:00 | SE | 9 km/h |
| 08:40:00 | 9° C | 4° C | 74% | 13 km/h | 16 km/h | 08:38:00 | SE | 13 km/h |
| 07:40:00 | 7° C | 4° C | 77% | 16 km/h | 22 km/h | 07:38:00 | SE | 14 km/h |
| 06:40:00 | 7° C | 4° C | 80% | 22 km/h | 25 km/h | 06:39:00 | S | 22 km/h |
| 05:40:00 | 7° C | 4° C | 78% | 10 km/h | 17 km/h | 05:36:00 | S | 12 km/h |
| 04:40:00 | 7° C | 4° C | 78% | 17 km/h | 18 km/h | 04:38:00 | S | 17 km/h |
| 03:40:00 | 7° C | 4° C | 83% | 24 km/h | 28 km/h | 03:40:00 | S | 24 km/h |
| 02:40:00 | 7° C | 5° C | 85% | 14 km/h | 19 km/h | 02:37:00 | S | 16 km/h |
| 01:40:00 | 7° C | 5° C | 85% | 17 km/h | 25 km/h | 01:38:00 | S | 20 km/h |
| 00:40:00 | 7° C | 5° C | 86% | 24 km/h | 30 km/h | 00:40:00 | S | 23 km/h |
| 23:40:00 | 7° C | 5° C | 87% | 25 km/h | 35 km/h | 23:40:00 | S | 23 km/h |
| 22:40:00 | 7° C | 5° C | 88% | 19 km/h | 28 km/h | 22:38:00 | SE | 22 km/h |
| 21:40:00 | 7° C | 5° C | 90% | 21 km/h | 26 km/h | 21:39:00 | S | 21 km/h |
| 20:40:00 | 6° C | 5° C | 89% | 14 km/h | 23 km/h | 20:37:00 | SE | 15 km/h |
| 19:40:00 | 6° C | 5° C | 90% | 19 km/h | 23 km/h | 19:40:00 | SE | 17 km/h |
| 18:40:00 | 7° C | 5° C | 89% | 8 km/h | 16 km/h | 18:37:00 | SE | 9 km/h |
| 17:40:00 | 8° C | 6° C | 90% | 8 km/h | 18 km/h | 17:36:00 | E | 10 km/h |
| 16:40:00 | 7° C | 6° C | 92% | 8 km/h | 18 km/h | 16:38:00 | SE | 9 km/h |
| 15:40:00 | 7° C | 7° C | 99% | 7 km/h | 11 km/h | 15:37:00 | SE | 6 km/h |
Subpeak Weather
| Time | Avg. Air Temp | Dew Point | Avg. Rel Humidity | Avg. 2 Min Wind Speed | Max Gust Velocity | MGV Time | MGV Direction | Avg. Spot Wind Velocity |
|---|---|---|---|---|---|---|---|---|
| 2026-09-01 14:40:00 | 13° C | 4° C | 53% | 9 km/h | 17 km/h | 14:37:00 | S | 8 km/h |
| 14:35:00 | 14° C | 4° C | 51% | 8 km/h | 16 km/h | 14:33:00 | S | 7 km/h |
| 14:30:00 | 14° C | 5° C | 53% | 13 km/h | 17 km/h | 14:29:00 | E | 13 km/h |
| 14:25:00 | 14° C | 4° C | 54% | 10 km/h | 16 km/h | 14:23:00 | S | 9 km/h |
| 14:20:00 | 14° C | 5° C | 54% | 4 km/h | 17 km/h | 14:17:00 | E | 9 km/h |
| 14:15:00 | 13° C | 4° C | 54% | 5 km/h | 20 km/h | 14:12:00 | E | 9 km/h |
| 14:10:00 | 13° C | 5° C | 57% | 6 km/h | 17 km/h | 14:10:00 | S | 3 km/h |
| 14:05:00 | 13° C | 5° C | 55% | 6 km/h | 14 km/h | 14:02:00 | S | 8 km/h |
| 14:00:00 | 14° C | 4° C | 56% | 10 km/h | 17 km/h | 13:59:00 | S | 6 km/h |
| 13:55:00 | 14° C | 5° C | 56% | 8 km/h | 15 km/h | 13:52:00 | SE | 8 km/h |
| 13:50:00 | 13° C | 5° C | 55% | 7 km/h | 18 km/h | 13:47:00 | SE | 10 km/h |
| 13:45:00 | 13° C | 4° C | 54% | 9 km/h | 19 km/h | 13:44:00 | E | 7 km/h |
| 13:40:00 | 14° C | 4° C | 57% | 9 km/h | 13 km/h | 13:37:00 | S | 8 km/h |




